createdAt,value
2018-08-16T00:01:18.394Z,101217.00
2018-08-16T00:06:22.433Z,101219.00
2018-08-16T00:11:26.471Z,101216.00
2018-08-16T00:16:30.506Z,101216.00
2018-08-16T00:21:34.546Z,101216.00
2018-08-16T00:26:38.645Z,101213.00
2018-08-16T00:31:42.450Z,101214.00
2018-08-16T00:36:53.085Z,101211.00
2018-08-16T00:41:57.129Z,101206.00
2018-08-16T00:47:01.197Z,101207.00
2018-08-16T00:52:05.028Z,101206.00
2018-08-16T00:57:09.960Z,101206.00
2018-08-16T01:02:13.987Z,101207.00
2018-08-16T01:07:18.041Z,101203.00
2018-08-16T01:12:22.071Z,101205.00
2018-08-16T01:17:25.864Z,101200.00
2018-08-16T01:22:29.910Z,101196.00
2018-08-16T01:27:34.303Z,101199.00
2018-08-16T01:32:38.350Z,101197.00
2018-08-16T01:37:42.510Z,101201.00
2018-08-16T01:42:46.563Z,101198.00
2018-08-16T01:47:50.617Z,101191.00
2018-08-16T01:52:56.717Z,101192.00
2018-08-16T01:58:00.520Z,101185.00
2018-08-16T02:03:04.551Z,101181.00
2018-08-16T02:08:08.353Z,101180.00
2018-08-16T02:13:12.268Z,101175.00
2018-08-16T02:18:16.326Z,101168.00
2018-08-16T02:23:20.365Z,101164.00
2018-08-16T02:28:24.441Z,101162.00
2018-08-16T02:33:28.477Z,101162.00
2018-08-16T02:38:32.485Z,101169.00
2018-08-16T02:43:36.512Z,101163.00
2018-08-16T02:48:40.693Z,101163.00
2018-08-16T02:53:44.725Z,101155.00
2018-08-16T02:58:49.746Z,101150.00
2018-08-16T03:03:53.779Z,101147.00
2018-08-16T03:08:57.821Z,101148.00
2018-08-16T03:14:01.716Z,101147.00
2018-08-16T03:19:05.905Z,101142.00
2018-08-16T03:24:09.985Z,101133.00
2018-08-16T03:29:14.041Z,101129.00
2018-08-16T03:34:17.946Z,101121.00
2018-08-16T03:39:21.974Z,101128.00
2018-08-16T03:44:26.014Z,101120.00
2018-08-16T03:49:30.104Z,101116.00
2018-08-16T03:54:33.921Z,101120.00
2018-08-16T03:59:37.769Z,101112.00
2018-08-16T04:04:41.789Z,101111.00
2018-08-16T04:09:45.841Z,101109.00
2018-08-16T04:14:49.886Z,101108.00
2018-08-16T04:19:53.926Z,101109.00
2018-08-16T04:24:58.047Z,101108.00
2018-08-16T04:30:02.087Z,101115.00
2018-08-16T04:35:06.271Z,101120.00
2018-08-16T04:40:10.422Z,101125.00
2018-08-16T04:45:14.458Z,101127.00
2018-08-16T04:50:18.274Z,101123.00
2018-08-16T04:55:22.293Z,101125.00
2018-08-16T05:00:26.098Z,101127.00
2018-08-16T05:05:30.165Z,101124.00
2018-08-16T05:10:33.950Z,101126.00
2018-08-16T05:15:37.826Z,101118.00
2018-08-16T05:20:41.641Z,101130.00
2018-08-16T05:25:45.830Z,101127.00
2018-08-16T05:30:49.638Z,101121.00
2018-08-16T05:35:53.674Z,101116.00
2018-08-16T05:40:57.749Z,101104.00
2018-08-16T05:46:01.824Z,101112.00
2018-08-16T05:51:06.031Z,101106.00
2018-08-16T05:56:10.088Z,101100.00
2018-08-16T06:01:14.020Z,101098.00
2018-08-16T06:06:17.857Z,101100.00
2018-08-16T06:11:21.749Z,101092.00
2018-08-16T06:16:26.011Z,101089.00
2018-08-16T06:21:29.956Z,101084.00
2018-08-16T06:26:34.071Z,101088.00
2018-08-16T06:31:38.158Z,101083.00
2018-08-16T06:36:42.210Z,101078.00
2018-08-16T06:41:46.213Z,101076.00
2018-08-16T06:46:50.087Z,101070.00
2018-08-16T06:51:54.026Z,101081.00
2018-08-16T06:56:58.231Z,101073.00
2018-08-16T07:02:02.374Z,101071.00
2018-08-16T07:07:06.162Z,101067.00
2018-08-16T07:12:10.438Z,101061.00
2018-08-16T07:17:14.521Z,101057.00
2018-08-16T07:22:18.730Z,101060.00
2018-08-16T07:27:22.823Z,101057.00
2018-08-16T07:32:26.692Z,101045.00
2018-08-16T07:37:30.530Z,101047.00
2018-08-16T07:42:34.654Z,101052.00
2018-08-16T07:47:39.040Z,101049.00
2018-08-16T07:52:43.159Z,101054.00
2018-08-16T07:57:47.263Z,101049.00
2018-08-16T08:02:51.383Z,101044.00
2018-08-16T08:07:55.242Z,101046.00
2018-08-16T08:12:59.178Z,101049.00
2018-08-16T08:18:03.315Z,101057.00
2018-08-16T08:23:07.271Z,101059.00
2018-08-16T08:28:11.383Z,101067.00
2018-08-16T08:33:15.246Z,101065.00
2018-08-16T08:38:19.300Z,101065.00
2018-08-16T08:43:34.406Z,101065.00
2018-08-16T08:48:38.474Z,101064.00
2018-08-16T08:54:34.907Z,101058.00
2018-08-16T08:59:39.048Z,101061.00
2018-08-16T09:04:43.123Z,101051.00
2018-08-16T09:11:31.023Z,101050.00
2018-08-16T09:16:37.186Z,101056.00
2018-08-16T09:21:41.218Z,101053.00
2018-08-16T09:26:45.874Z,101047.00
2018-08-16T09:33:09.867Z,101040.00
2018-08-16T09:38:14.006Z,101031.00
2018-08-16T09:43:18.070Z,101026.00
2018-08-16T09:48:43.466Z,101006.00
2018-08-16T09:53:47.546Z,100996.00
2018-08-16T09:58:51.589Z,100993.00
2018-08-16T10:03:55.606Z,100987.00
2018-08-16T10:08:59.401Z,100978.00
2018-08-16T10:14:03.464Z,100975.00
2018-08-16T10:19:07.531Z,100969.00
2018-08-16T10:24:11.606Z,100955.00
2018-08-16T10:29:15.621Z,100949.00
2018-08-16T10:34:19.551Z,100940.00
2018-08-16T10:39:23.615Z,100943.00
2018-08-16T10:44:27.782Z,100939.00
2018-08-16T10:49:31.594Z,100932.00
2018-08-16T10:54:35.670Z,100926.00
2018-08-16T10:59:39.744Z,100912.00
2018-08-16T11:04:43.823Z,100909.00
2018-08-16T11:09:47.664Z,100901.00
2018-08-16T11:14:51.726Z,100900.00
2018-08-16T11:19:55.791Z,100890.00
2018-08-16T11:24:59.880Z,100874.00
2018-08-16T11:30:04.467Z,100872.00
2018-08-16T11:35:08.529Z,100869.00
2018-08-16T11:40:12.683Z,100865.00
2018-08-16T11:45:16.936Z,100866.00
2018-08-16T11:50:21.049Z,100857.00
2018-08-16T11:55:25.150Z,100845.00
2018-08-16T12:00:29.225Z,100840.00
2018-08-16T12:05:33.343Z,100840.00
2018-08-16T12:10:37.416Z,100830.00
2018-08-16T12:15:41.475Z,100828.00
2018-08-16T12:20:45.570Z,100819.00
2018-08-16T12:25:49.643Z,100810.00
2018-08-16T12:30:53.717Z,100802.00
2018-08-16T12:35:57.800Z,100797.00
2018-08-16T12:41:02.264Z,100795.00
2018-08-16T12:46:06.308Z,100789.00
2018-08-16T12:51:10.374Z,100787.00
2018-08-16T12:56:14.294Z,100770.00
2018-08-16T13:01:18.385Z,100772.00
2018-08-16T13:06:22.484Z,100770.00
2018-08-16T13:11:26.334Z,100767.00
2018-08-16T13:16:30.429Z,100761.00
2018-08-16T13:21:34.583Z,100754.00
2018-08-16T13:26:38.639Z,100754.00
2018-08-16T13:31:42.719Z,100750.00
2018-08-16T13:36:46.775Z,100741.00
2018-08-16T13:41:50.885Z,100738.00
2018-08-16T13:46:54.953Z,100728.00
2018-08-16T13:51:58.793Z,100721.00
2018-08-16T13:57:03.559Z,103049.00
2018-08-16T14:02:07.725Z,100706.00
2018-08-16T14:07:11.831Z,100694.00
2018-08-16T14:12:15.806Z,100699.00
2018-08-16T14:17:19.855Z,100688.00
2018-08-16T14:22:23.730Z,100677.00
2018-08-16T14:27:27.810Z,100678.00
2018-08-16T14:32:31.992Z,100670.00
2018-08-16T14:37:35.958Z,100656.00
2018-08-16T14:42:40.047Z,100656.00
2018-08-16T14:47:43.895Z,100650.00
2018-08-16T14:52:47.747Z,100646.00
2018-08-16T14:57:51.849Z,100642.00
2018-08-16T15:02:56.055Z,100642.00
2018-08-16T15:07:59.887Z,100643.00
2018-08-16T15:13:03.974Z,100635.00
2018-08-16T15:18:07.894Z,100636.00
2018-08-16T15:23:12.000Z,100632.00
2018-08-16T15:28:15.800Z,100629.00
2018-08-16T15:33:19.866Z,100628.00
2018-08-16T15:38:23.956Z,100625.00
2018-08-16T15:43:27.813Z,100617.00
2018-08-16T15:48:31.871Z,100611.00
2018-08-16T15:53:35.937Z,100603.00
2018-08-16T15:58:40.002Z,100601.00
2018-08-16T16:03:44.078Z,100597.00
2018-08-16T16:08:48.175Z,100603.00
2018-08-16T16:13:52.097Z,100593.00
2018-08-16T16:18:55.949Z,100593.00
2018-08-16T16:24:00.051Z,100591.00
2018-08-16T16:29:04.099Z,100588.00
2018-08-16T16:34:08.691Z,100584.00
2018-08-16T16:39:13.343Z,100583.00
2018-08-16T16:44:17.292Z,100579.00
2018-08-16T16:49:23.549Z,100578.00
2018-08-16T16:54:27.359Z,100575.00
2018-08-16T16:59:31.398Z,100572.00
2018-08-16T17:04:35.433Z,100566.00
2018-08-16T17:09:39.470Z,100566.00
2018-08-16T17:14:43.286Z,100566.00
2018-08-16T17:19:47.337Z,100565.00
2018-08-16T17:24:51.369Z,100562.00
2018-08-16T17:29:55.445Z,100567.00
2018-08-16T17:34:59.298Z,100566.00
2018-08-16T17:40:03.484Z,100567.00
2018-08-16T17:45:07.428Z,100572.00
2018-08-16T17:50:11.581Z,100573.00
2018-08-16T17:55:15.434Z,100572.00
2018-08-16T18:00:19.474Z,100575.00
2018-08-16T18:05:23.292Z,100580.00
2018-08-16T18:10:27.430Z,100585.00
2018-08-16T18:15:31.478Z,100585.00
2018-08-16T18:20:35.513Z,100588.00
2018-08-16T18:25:39.546Z,100588.00
2018-08-16T18:30:43.629Z,100591.00
2018-08-16T18:35:47.670Z,100600.00
2018-08-16T18:40:51.735Z,100605.00
2018-08-16T18:45:55.597Z,100613.00
2018-08-16T18:50:59.409Z,100623.00
2018-08-16T18:56:03.442Z,100628.00
2018-08-16T19:01:07.333Z,100632.00
2018-08-16T19:06:11.366Z,100631.00
2018-08-16T19:11:15.408Z,100638.00
2018-08-16T19:16:19.465Z,100642.00
2018-08-16T19:21:23.506Z,100650.00
2018-08-16T19:26:27.327Z,100655.00
2018-08-16T19:31:32.218Z,100659.00
2018-08-16T19:36:36.031Z,100663.00
2018-08-16T19:41:40.165Z,100665.00
2018-08-16T19:46:43.994Z,100663.00
2018-08-16T19:51:48.162Z,100666.00
2018-08-16T19:56:52.201Z,100668.00
2018-08-16T20:01:56.290Z,100677.00
2018-08-16T20:07:00.368Z,100672.00
2018-08-16T20:12:07.389Z,100673.00
2018-08-16T20:17:11.423Z,100665.00
2018-08-16T20:22:18.861Z,100665.00
2018-08-16T20:27:22.923Z,100659.00
2018-08-16T20:32:26.857Z,100663.00
2018-08-16T20:37:30.665Z,100662.00
2018-08-16T20:42:34.870Z,100667.00
2018-08-16T20:47:38.955Z,100672.00
2018-08-16T20:52:42.922Z,100674.00
2018-08-16T20:57:46.990Z,100669.00
2018-08-16T21:02:50.807Z,100672.00
2018-08-16T21:07:54.894Z,100668.00
2018-08-16T21:12:59.162Z,100666.00
2018-08-16T21:18:02.975Z,100664.00
2018-08-16T21:23:07.546Z,100668.00
2018-08-16T21:28:11.342Z,100669.00
2018-08-16T21:33:15.390Z,100668.00
2018-08-16T21:38:19.249Z,100670.00
2018-08-16T21:43:23.406Z,100672.00
2018-08-16T21:48:27.460Z,100674.00
2018-08-16T21:53:31.535Z,100676.00
2018-08-16T21:58:35.742Z,100679.00
2018-08-16T22:03:39.538Z,100690.00
2018-08-16T22:08:51.822Z,100691.00
2018-08-16T22:13:55.889Z,100687.00
2018-08-16T22:19:00.041Z,100686.00
2018-08-16T22:24:04.187Z,100687.00
2018-08-16T22:29:08.222Z,100691.00
2018-08-16T22:34:12.058Z,100686.00
2018-08-16T22:39:15.866Z,100688.00
2018-08-16T22:44:19.709Z,100684.00
2018-08-16T22:49:23.715Z,100685.00
2018-08-16T22:54:27.818Z,100691.00
2018-08-16T22:59:31.614Z,100694.00
2018-08-16T23:04:35.672Z,100684.00
2018-08-16T23:09:39.707Z,100684.00
2018-08-16T23:14:43.517Z,100684.00
2018-08-16T23:19:47.693Z,100672.00
2018-08-16T23:24:51.735Z,100671.00
2018-08-16T23:29:55.883Z,100675.00
2018-08-16T23:34:59.987Z,100667.00
2018-08-16T23:40:04.677Z,100666.00
2018-08-16T23:45:09.954Z,100677.00
2018-08-16T23:50:13.978Z,100671.00
2018-08-16T23:55:17.825Z,100675.00
